createdAt,value
2022-12-06T00:00:01.786Z,2.10
2022-12-06T00:02:28.695Z,2.10
2022-12-06T00:04:55.420Z,2.20
2022-12-06T00:07:22.164Z,2.10
2022-12-06T00:09:48.864Z,2.10
2022-12-06T00:12:15.554Z,2.00
2022-12-06T00:14:42.273Z,2.00
2022-12-06T00:17:08.940Z,2.00
2022-12-06T00:19:35.614Z,2.00
2022-12-06T00:22:02.298Z,2.00
2022-12-06T00:24:29.014Z,2.20
2022-12-06T00:26:55.669Z,2.10
2022-12-06T00:29:23.195Z,2.10
2022-12-06T00:31:50.331Z,2.10
2022-12-06T00:34:17.323Z,2.10
2022-12-06T00:36:44.108Z,2.10
2022-12-06T00:39:13.229Z,2.10
2022-12-06T00:41:39.938Z,2.10
2022-12-06T00:44:06.788Z,2.00
2022-12-06T00:46:34.011Z,2.00
2022-12-06T00:49:01.207Z,2.00
2022-12-06T00:51:29.005Z,1.90
2022-12-06T00:53:55.753Z,2.00
2022-12-06T00:56:22.498Z,1.90
2022-12-06T00:58:49.243Z,2.00
2022-12-06T01:01:17.668Z,2.00
2022-12-06T01:03:44.916Z,2.00
2022-12-06T01:06:13.157Z,1.90
2022-12-06T01:08:39.944Z,1.90
2022-12-06T01:11:07.395Z,2.00
2022-12-06T01:13:34.505Z,1.90
2022-12-06T01:16:05.084Z,1.90
2022-12-06T01:18:31.719Z,2.00
2022-12-06T01:21:02.576Z,1.90
2022-12-06T01:23:29.188Z,2.00
2022-12-06T01:25:56.031Z,1.70
2022-12-06T01:28:22.646Z,1.50
2022-12-06T01:30:49.318Z,1.40
2022-12-06T01:33:15.975Z,1.50
2022-12-06T01:35:42.958Z,1.70
2022-12-06T01:38:09.963Z,1.50
2022-12-06T01:40:40.647Z,1.50
2022-12-06T01:43:27.202Z,1.60
2022-12-06T01:45:53.927Z,1.50
2022-12-06T01:48:22.009Z,1.50
2022-12-06T01:50:48.788Z,1.40
2022-12-06T01:53:15.601Z,1.40
2022-12-06T01:55:42.362Z,1.40
2022-12-06T01:58:28.998Z,1.30
2022-12-06T02:00:55.677Z,1.30
2022-12-06T02:03:24.142Z,1.30
2022-12-06T02:05:50.948Z,1.40
2022-12-06T02:08:18.945Z,1.40
2022-12-06T02:10:45.637Z,1.40
2022-12-06T02:13:12.306Z,1.30
2022-12-06T02:15:58.439Z,1.40
2022-12-06T02:18:40.311Z,1.40
2022-12-06T02:21:13.001Z,1.40
2022-12-06T02:23:59.868Z,1.40
2022-12-06T02:26:26.469Z,1.50
2022-12-06T02:29:05.209Z,1.40
2022-12-06T02:31:31.885Z,1.40
2022-12-06T02:34:04.793Z,1.30
2022-12-06T02:36:50.147Z,1.10
2022-12-06T02:39:29.028Z,1.10
2022-12-06T02:42:00.137Z,1.30
2022-12-06T02:44:31.300Z,1.20
2022-12-06T02:46:58.622Z,1.10
2022-12-06T02:49:26.854Z,1.00
2022-12-06T02:51:54.688Z,1.00
2022-12-06T02:54:22.368Z,0.90
2022-12-06T02:56:48.995Z,1.00
2022-12-06T02:59:15.591Z,0.90
2022-12-06T03:01:45.104Z,0.90
2022-12-06T03:04:27.348Z,0.90
2022-12-06T03:06:53.944Z,0.80
2022-12-06T03:09:20.520Z,0.80
2022-12-06T03:11:53.185Z,0.90
2022-12-06T03:14:22.191Z,0.90
2022-12-06T03:16:55.029Z,0.70
2022-12-06T03:19:22.909Z,0.60
2022-12-06T03:21:51.764Z,0.50
2022-12-06T03:24:18.900Z,0.50
2022-12-06T03:26:47.468Z,0.60
2022-12-06T03:29:15.668Z,0.50
2022-12-06T03:31:43.015Z,0.50
2022-12-06T03:34:11.171Z,0.50
2022-12-06T03:36:38.655Z,0.50
2022-12-06T03:39:06.744Z,0.70
2022-12-06T03:41:37.948Z,0.50
2022-12-06T03:44:04.871Z,0.50
2022-12-06T03:46:33.918Z,0.60
2022-12-06T03:49:10.074Z,0.60
2022-12-06T03:51:37.466Z,0.50
2022-12-06T03:54:05.746Z,0.50
2022-12-06T03:56:32.607Z,0.50
2022-12-06T03:58:59.192Z,0.40
2022-12-06T04:01:25.833Z,0.50
2022-12-06T04:03:52.548Z,0.50
2022-12-06T04:06:19.183Z,0.40
2022-12-06T04:08:45.783Z,0.50
2022-12-06T04:11:12.424Z,0.40
2022-12-06T04:13:39.113Z,0.40
2022-12-06T04:16:25.920Z,0.50
2022-12-06T04:18:52.577Z,0.50
2022-12-06T04:21:31.151Z,0.60
2022-12-06T04:23:58.075Z,0.40
2022-12-06T04:26:24.850Z,0.30
2022-12-06T04:29:11.022Z,0.30
2022-12-06T04:31:56.648Z,0.20
2022-12-06T04:34:42.235Z,0.10
2022-12-06T04:37:27.378Z,0.10
2022-12-06T04:39:54.014Z,0.10
2022-12-06T04:42:39.408Z,0.10
2022-12-06T04:45:06.607Z,0.00
2022-12-06T04:47:33.257Z,0.00
2022-12-06T04:50:00.060Z,0.10
2022-12-06T04:52:30.141Z,0.00
2022-12-06T04:54:59.351Z,0.20
2022-12-06T04:57:25.959Z,0.00
2022-12-06T04:59:52.606Z,0.00
2022-12-06T05:02:19.224Z,-0.10
2022-12-06T05:04:45.855Z,-0.20
2022-12-06T05:07:12.743Z,-0.30
2022-12-06T05:09:39.382Z,-0.20
2022-12-06T05:12:06.322Z,-0.20
2022-12-06T05:14:32.950Z,-0.20
2022-12-06T05:16:59.581Z,-0.40
2022-12-06T05:19:26.247Z,-0.40
2022-12-06T05:21:52.858Z,-0.50
2022-12-06T05:24:19.448Z,-0.50
2022-12-06T05:26:46.048Z,-0.60
2022-12-06T05:29:12.644Z,-0.60
2022-12-06T05:31:39.449Z,-0.70
2022-12-06T05:34:06.082Z,-0.70
2022-12-06T05:36:32.691Z,-0.70
2022-12-06T05:38:59.326Z,-0.70
2022-12-06T05:41:26.000Z,-0.60
2022-12-06T05:43:52.657Z,-0.40
2022-12-06T05:46:19.388Z,-0.40
2022-12-06T05:48:46.175Z,-0.30
2022-12-06T05:51:12.848Z,-0.40
2022-12-06T05:53:40.739Z,-0.40
2022-12-06T05:56:09.033Z,-0.40
2022-12-06T05:58:36.496Z,-0.30
2022-12-06T06:01:04.526Z,-0.20
2022-12-06T06:03:31.334Z,-0.30
2022-12-06T06:05:59.146Z,-0.20
2022-12-06T06:08:26.628Z,-0.10
2022-12-06T06:10:53.322Z,-0.10
2022-12-06T06:13:20.406Z,0.10
2022-12-06T06:15:48.542Z,0.00
2022-12-06T06:18:15.423Z,0.00
2022-12-06T06:20:42.033Z,-0.20
2022-12-06T06:23:08.710Z,-0.20
2022-12-06T06:25:35.409Z,0.00
2022-12-06T06:28:02.043Z,0.20
2022-12-06T06:30:28.658Z,0.10
2022-12-06T06:32:55.673Z,0.30
2022-12-06T06:35:22.368Z,0.60
2022-12-06T06:37:49.052Z,0.40
2022-12-06T06:40:15.823Z,0.50
2022-12-06T06:42:42.450Z,0.40
2022-12-06T06:45:09.372Z,0.40
2022-12-06T06:47:36.029Z,0.40
2022-12-06T06:50:03.010Z,0.40
2022-12-06T06:52:29.756Z,0.40
2022-12-06T06:54:56.375Z,0.50
2022-12-06T06:57:22.982Z,0.60
2022-12-06T06:59:49.640Z,0.60
2022-12-06T07:02:17.399Z,0.60
2022-12-06T07:04:44.635Z,0.70
2022-12-06T07:07:14.350Z,0.60
2022-12-06T07:09:46.053Z,0.80
2022-12-06T07:12:13.404Z,0.90
2022-12-06T07:14:40.097Z,0.80
2022-12-06T07:17:06.876Z,1.00
2022-12-06T07:19:33.615Z,1.00
2022-12-06T07:22:00.235Z,1.00
2022-12-06T07:24:26.868Z,1.00
2022-12-06T07:26:54.528Z,1.10
2022-12-06T07:29:21.166Z,1.20
2022-12-06T07:31:47.817Z,1.20
2022-12-06T07:34:14.463Z,1.20
2022-12-06T07:36:41.284Z,1.30
2022-12-06T07:39:14.285Z,1.30
2022-12-06T07:42:00.284Z,1.30
2022-12-06T07:45:03.394Z,1.30
2022-12-06T07:47:34.657Z,1.30
2022-12-06T07:50:01.723Z,1.40
2022-12-06T07:52:32.755Z,1.20
2022-12-06T07:54:59.580Z,1.10
2022-12-06T07:57:26.319Z,1.00
2022-12-06T07:59:53.037Z,0.90
2022-12-06T08:02:21.625Z,0.80
2022-12-06T08:04:48.421Z,0.80
2022-12-06T08:07:15.698Z,1.00
2022-12-06T08:09:42.399Z,1.00
2022-12-06T08:12:09.509Z,1.00
2022-12-06T08:14:36.562Z,1.10
2022-12-06T08:17:04.840Z,1.00
2022-12-06T08:19:31.922Z,1.10
2022-12-06T08:21:58.768Z,1.20
2022-12-06T08:24:25.499Z,1.40
2022-12-06T08:26:53.092Z,1.40
2022-12-06T08:29:19.885Z,1.50
2022-12-06T08:31:46.576Z,1.70
2022-12-06T08:34:14.268Z,2.00
2022-12-06T08:36:40.975Z,2.40
2022-12-06T08:39:08.197Z,2.60
2022-12-06T08:41:53.591Z,2.80
2022-12-06T08:44:20.284Z,2.90
2022-12-06T08:46:47.448Z,2.90
2022-12-06T08:49:14.816Z,2.70
2022-12-06T08:51:41.503Z,2.90
2022-12-06T08:54:09.339Z,2.80
2022-12-06T08:56:36.218Z,2.70
2022-12-06T08:59:03.435Z,2.80
2022-12-06T09:01:37.107Z,2.80
2022-12-06T09:04:04.917Z,2.80
2022-12-06T09:06:31.611Z,2.90
2022-12-06T09:08:58.505Z,2.80
2022-12-06T09:11:25.915Z,2.80
2022-12-06T09:13:52.603Z,3.10
2022-12-06T09:16:20.454Z,3.10
2022-12-06T09:18:47.660Z,3.30
2022-12-06T09:21:16.524Z,3.30
2022-12-06T09:23:43.248Z,3.30
2022-12-06T09:26:09.978Z,3.30
2022-12-06T09:28:37.529Z,3.10
2022-12-06T09:31:04.931Z,3.10
2022-12-06T09:33:31.660Z,3.10
2022-12-06T09:35:59.483Z,3.20
2022-12-06T09:38:27.759Z,3.20
2022-12-06T09:41:13.153Z,3.20
2022-12-06T09:43:39.774Z,3.20
2022-12-06T09:46:25.320Z,3.30
2022-12-06T09:49:15.194Z,3.40
2022-12-06T09:51:44.706Z,3.30
2022-12-06T09:54:21.119Z,3.30
2022-12-06T09:56:51.310Z,3.60
2022-12-06T09:59:24.190Z,3.60
2022-12-06T10:02:03.124Z,3.50
2022-12-06T10:04:32.851Z,3.40
2022-12-06T10:07:14.871Z,3.50
2022-12-06T10:09:44.581Z,3.50
2022-12-06T10:12:29.906Z,3.50
2022-12-06T10:14:59.660Z,3.50
2022-12-06T10:17:52.096Z,3.60
2022-12-06T10:20:37.704Z,3.40
2022-12-06T10:23:21.715Z,3.30
2022-12-06T10:25:57.255Z,3.30
2022-12-06T10:28:31.222Z,3.50
2022-12-06T10:31:01.450Z,3.50
2022-12-06T10:33:31.964Z,3.40
2022-12-06T10:36:03.367Z,3.60
2022-12-06T10:38:35.550Z,3.60
2022-12-06T10:41:17.280Z,3.50
2022-12-06T10:43:43.919Z,3.60
2022-12-06T10:47:18.571Z,3.70
2022-12-06T10:50:04.237Z,3.60
2022-12-06T10:52:38.371Z,3.50
2022-12-06T10:55:05.035Z,3.40
2022-12-06T10:57:37.612Z,3.50
2022-12-06T11:00:05.843Z,3.70
2022-12-06T11:02:44.176Z,3.70
2022-12-06T11:05:18.205Z,3.60
2022-12-06T11:07:46.871Z,3.60
2022-12-06T11:10:21.929Z,3.60
2022-12-06T11:12:49.093Z,3.50
2022-12-06T11:15:24.428Z,3.60
2022-12-06T11:18:02.204Z,3.60
2022-12-06T11:20:31.558Z,3.60
2022-12-06T11:23:10.331Z,3.70
2022-12-06T11:25:53.068Z,3.70
2022-12-06T11:28:33.653Z,3.60
2022-12-06T11:31:00.363Z,3.60
2022-12-06T11:33:32.532Z,3.60
2022-12-06T11:36:01.052Z,3.70
2022-12-06T11:38:27.874Z,3.70
2022-12-06T11:40:54.899Z,3.70
2022-12-06T11:43:24.453Z,4.00
2022-12-06T11:45:51.090Z,3.90
2022-12-06T11:48:19.150Z,3.90
2022-12-06T11:50:46.556Z,3.80
2022-12-06T11:53:21.671Z,3.70
2022-12-06T11:55:50.778Z,3.70
2022-12-06T11:58:23.363Z,3.80
2022-12-06T12:01:01.507Z,4.00
2022-12-06T12:03:33.439Z,4.00
2022-12-06T12:06:19.924Z,4.00
2022-12-06T12:08:52.647Z,4.00
2022-12-06T12:11:21.045Z,3.80
2022-12-06T12:13:52.151Z,3.90
2022-12-06T12:16:18.856Z,4.00
2022-12-06T12:18:56.366Z,3.90
2022-12-06T12:21:39.512Z,4.10
2022-12-06T12:24:26.118Z,3.90
2022-12-06T12:26:52.712Z,3.70
2022-12-06T12:29:20.704Z,3.80
2022-12-06T12:31:54.966Z,3.80
2022-12-06T12:34:29.028Z,3.80
2022-12-06T12:37:00.393Z,3.80
2022-12-06T12:39:36.440Z,3.90
2022-12-06T12:42:03.862Z,3.90
2022-12-06T12:44:40.214Z,3.90
2022-12-06T12:47:20.564Z,4.10
2022-12-06T12:50:01.136Z,4.00
2022-12-06T12:52:29.260Z,4.00
2022-12-06T12:55:00.953Z,3.80
2022-12-06T12:57:28.046Z,3.80
2022-12-06T12:59:54.697Z,3.90
2022-12-06T13:02:23.745Z,4.00
2022-12-06T13:05:05.210Z,3.90
2022-12-06T13:07:41.075Z,4.00
2022-12-06T13:10:11.975Z,3.80
2022-12-06T13:12:43.382Z,3.90
2022-12-06T13:15:18.743Z,3.90
2022-12-06T13:17:47.870Z,4.00
2022-12-06T13:20:28.351Z,4.00
2022-12-06T13:22:57.113Z,4.00
2022-12-06T13:25:23.841Z,4.00
2022-12-06T13:27:52.407Z,3.90
2022-12-06T13:30:20.296Z,3.90
2022-12-06T13:32:49.931Z,3.90
2022-12-06T13:35:20.047Z,4.10
2022-12-06T13:37:57.684Z,4.20
2022-12-06T13:40:33.490Z,4.20
2022-12-06T13:43:00.851Z,4.20
2022-12-06T13:45:36.761Z,4.10
2022-12-06T13:48:03.524Z,4.00
2022-12-06T13:50:33.189Z,3.90
2022-12-06T13:53:00.357Z,3.90
2022-12-06T13:55:28.355Z,4.00
2022-12-06T13:57:54.934Z,4.00
2022-12-06T14:00:30.613Z,3.90
2022-12-06T14:03:02.636Z,3.90
2022-12-06T14:05:48.103Z,4.00
2022-12-06T14:08:14.765Z,3.80
2022-12-06T14:10:41.503Z,3.80
2022-12-06T14:13:12.159Z,3.80
2022-12-06T14:15:41.075Z,3.90
2022-12-06T14:18:16.930Z,3.90
2022-12-06T14:20:43.705Z,3.80
2022-12-06T14:23:43.694Z,3.80
2022-12-06T14:26:19.924Z,3.80
2022-12-06T14:28:46.985Z,3.90
2022-12-06T14:31:20.047Z,3.90
2022-12-06T14:33:46.797Z,3.80
2022-12-06T14:36:18.091Z,3.90
2022-12-06T14:38:50.865Z,3.80
2022-12-06T14:41:37.176Z,3.90
2022-12-06T14:44:15.573Z,3.90
2022-12-06T14:46:44.241Z,3.80
2022-12-06T14:49:39.756Z,3.70
2022-12-06T14:52:24.876Z,3.70
2022-12-06T14:54:52.489Z,3.70
2022-12-06T14:57:27.207Z,3.70
2022-12-06T15:00:18.022Z,3.80
2022-12-06T15:03:07.433Z,3.70
2022-12-06T15:05:35.778Z,3.60
2022-12-06T15:08:37.705Z,3.60
2022-12-06T15:11:13.315Z,3.50
2022-12-06T15:13:40.108Z,3.60
2022-12-06T15:16:09.815Z,3.60
2022-12-06T15:18:40.784Z,3.70
2022-12-06T15:21:14.383Z,3.70
2022-12-06T15:23:54.150Z,3.50
2022-12-06T15:26:21.823Z,3.70
2022-12-06T15:28:48.902Z,3.60
2022-12-06T15:31:26.978Z,3.60
2022-12-06T15:33:54.230Z,3.60
2022-12-06T15:36:22.782Z,3.70
2022-12-06T15:38:49.793Z,3.50
2022-12-06T15:41:21.200Z,3.50
2022-12-06T15:43:48.144Z,3.40
2022-12-06T15:46:23.648Z,3.50
2022-12-06T15:48:50.797Z,3.50
2022-12-06T15:51:20.794Z,3.30
2022-12-06T15:53:49.567Z,3.40
2022-12-06T15:56:17.533Z,3.40
2022-12-06T15:58:44.631Z,3.50
2022-12-06T16:01:25.210Z,3.50
2022-12-06T16:03:53.936Z,3.50
2022-12-06T16:06:21.336Z,3.30
2022-12-06T16:08:47.925Z,3.30
2022-12-06T16:11:15.892Z,3.10
2022-12-06T16:13:42.544Z,3.10
2022-12-06T16:16:09.717Z,3.30
2022-12-06T16:18:36.556Z,3.30
2022-12-06T16:21:03.419Z,3.30
2022-12-06T16:24:12.435Z,3.30
2022-12-06T16:26:36.856Z,3.30
2022-12-06T16:29:04.744Z,3.20
2022-12-06T16:31:35.121Z,3.40
2022-12-06T16:34:04.667Z,3.40
2022-12-06T16:36:32.311Z,3.40
2022-12-06T16:39:00.180Z,3.40
2022-12-06T16:41:28.511Z,3.40
2022-12-06T16:43:55.406Z,3.40
2022-12-06T16:46:35.361Z,3.30
2022-12-06T16:49:46.430Z,3.30
2022-12-06T16:52:09.359Z,3.20
2022-12-06T16:54:36.075Z,3.20
2022-12-06T16:57:02.677Z,3.20
2022-12-06T16:59:29.294Z,3.20
2022-12-06T17:01:55.994Z,3.20
2022-12-06T17:04:22.696Z,3.10
2022-12-06T17:06:49.750Z,3.10
2022-12-06T17:09:16.675Z,3.10
2022-12-06T17:12:01.992Z,3.00
2022-12-06T17:14:29.016Z,3.00
2022-12-06T17:16:55.665Z,2.90
2022-12-06T17:19:23.281Z,2.90
2022-12-06T17:21:51.214Z,2.90
2022-12-06T17:24:18.366Z,3.00
2022-12-06T17:26:45.014Z,3.00
2022-12-06T17:29:12.347Z,3.10
2022-12-06T17:31:39.497Z,3.10
2022-12-06T17:34:07.483Z,3.10
2022-12-06T17:36:34.547Z,3.20
2022-12-06T17:39:01.911Z,3.10
2022-12-06T17:41:51.866Z,3.10
2022-12-06T17:44:19.080Z,2.90
2022-12-06T17:46:46.201Z,3.10
2022-12-06T17:49:14.301Z,3.00
2022-12-06T17:51:40.949Z,3.00
2022-12-06T17:54:09.514Z,3.10
2022-12-06T17:56:38.340Z,3.00
2022-12-06T17:59:07.137Z,3.00
2022-12-06T18:01:51.268Z,2.90
2022-12-06T18:04:20.978Z,2.90
2022-12-06T18:06:47.936Z,2.90
2022-12-06T18:09:15.167Z,3.00
2022-12-06T18:11:42.094Z,3.10
2022-12-06T18:14:08.756Z,3.10
2022-12-06T18:16:36.875Z,3.10
2022-12-06T18:19:08.625Z,3.10
2022-12-06T18:21:39.727Z,3.20
2022-12-06T18:24:30.501Z,3.20
2022-12-06T18:26:57.793Z,3.20
2022-12-06T18:29:24.564Z,3.10
2022-12-06T18:31:51.870Z,3.10
2022-12-06T18:34:19.264Z,3.00
2022-12-06T18:36:46.126Z,3.20
2022-12-06T18:39:15.264Z,3.20
2022-12-06T18:41:43.412Z,3.20
2022-12-06T18:44:10.667Z,3.30
2022-12-06T18:46:38.767Z,3.30
2022-12-06T18:49:06.321Z,3.40
2022-12-06T18:51:33.733Z,3.40
2022-12-06T18:54:02.056Z,3.20
2022-12-06T18:56:30.160Z,3.20
2022-12-06T18:59:04.958Z,3.20
2022-12-06T19:01:33.164Z,3.30
2022-12-06T19:04:00.883Z,3.20
2022-12-06T19:06:29.943Z,3.10
2022-12-06T19:08:57.793Z,3.20
2022-12-06T19:11:24.611Z,3.20
2022-12-06T19:13:52.079Z,3.20
2022-12-06T19:16:21.229Z,3.10
2022-12-06T19:18:48.476Z,3.00
2022-12-06T19:21:15.439Z,3.00
2022-12-06T19:23:42.039Z,3.00
2022-12-06T19:26:08.728Z,3.00
2022-12-06T19:28:37.823Z,3.10
2022-12-06T19:31:05.345Z,3.00
2022-12-06T19:33:38.194Z,3.00
2022-12-06T19:36:06.129Z,3.00
2022-12-06T19:38:33.556Z,2.90
2022-12-06T19:41:02.260Z,3.10
2022-12-06T19:43:47.495Z,3.10
2022-12-06T19:46:15.608Z,3.10
2022-12-06T19:48:43.951Z,3.10
2022-12-06T19:51:10.754Z,3.10
2022-12-06T19:53:38.517Z,3.10
2022-12-06T19:56:06.887Z,3.00
2022-12-06T19:58:33.688Z,3.10
2022-12-06T20:01:00.485Z,3.10
2022-12-06T20:03:27.145Z,3.10
2022-12-06T20:06:01.019Z,3.00
2022-12-06T20:08:27.688Z,3.00
2022-12-06T20:10:54.311Z,3.10
2022-12-06T20:13:22.824Z,3.00
2022-12-06T20:15:49.501Z,3.00
2022-12-06T20:18:16.266Z,3.20
2022-12-06T20:20:45.898Z,3.10
2022-12-06T20:23:12.516Z,3.20
2022-12-06T20:25:39.125Z,3.20
2022-12-06T20:28:10.380Z,3.10
2022-12-06T20:30:40.041Z,3.00
2022-12-06T20:33:06.684Z,3.10
2022-12-06T20:35:36.265Z,3.10
2022-12-06T20:38:02.887Z,3.10
2022-12-06T20:40:31.616Z,3.20
2022-12-06T20:42:58.518Z,3.10
2022-12-06T20:45:25.228Z,3.10
2022-12-06T20:47:52.538Z,3.00
2022-12-06T20:50:19.230Z,2.80
2022-12-06T20:52:45.860Z,2.90
2022-12-06T20:55:12.492Z,2.80
2022-12-06T20:57:39.099Z,2.90
2022-12-06T21:00:07.825Z,2.80
2022-12-06T21:02:34.882Z,2.90
2022-12-06T21:05:01.582Z,2.90
2022-12-06T21:07:28.209Z,2.90
2022-12-06T21:09:54.851Z,3.00
2022-12-06T21:12:22.337Z,3.00
2022-12-06T21:14:49.000Z,3.00
2022-12-06T21:17:15.672Z,2.80
2022-12-06T21:19:42.674Z,3.00
2022-12-06T21:22:09.373Z,2.90
2022-12-06T21:24:36.036Z,2.80
2022-12-06T21:27:02.766Z,3.00
2022-12-06T21:29:31.131Z,3.00
2022-12-06T21:32:00.062Z,2.90
2022-12-06T21:34:26.742Z,3.00
2022-12-06T21:36:53.393Z,3.00
2022-12-06T21:39:20.008Z,2.80
2022-12-06T21:41:46.799Z,2.70
2022-12-06T21:44:13.430Z,2.70
2022-12-06T21:46:40.122Z,2.80
2022-12-06T21:49:06.821Z,2.90
2022-12-06T21:51:33.683Z,2.80
2022-12-06T21:54:00.367Z,2.90
2022-12-06T21:56:28.495Z,2.70
2022-12-06T21:58:55.137Z,2.80
2022-12-06T22:01:27.798Z,3.00
2022-12-06T22:03:55.747Z,2.90
2022-12-06T22:06:22.829Z,3.00
2022-12-06T22:08:55.094Z,3.00
2022-12-06T22:11:21.722Z,3.10
2022-12-06T22:13:48.377Z,3.00
2022-12-06T22:16:15.656Z,2.80
2022-12-06T22:18:45.582Z,3.10
2022-12-06T22:21:14.953Z,2.90
2022-12-06T22:23:41.874Z,3.00
2022-12-06T22:26:09.356Z,2.80
2022-12-06T22:28:36.019Z,3.00
2022-12-06T22:31:09.618Z,2.90
2022-12-06T22:33:36.483Z,3.00
2022-12-06T22:36:03.306Z,3.10
2022-12-06T22:38:29.997Z,3.20
2022-12-06T22:40:57.530Z,3.20
2022-12-06T22:43:24.243Z,2.90
2022-12-06T22:45:50.853Z,3.20
2022-12-06T22:48:17.516Z,3.10
2022-12-06T22:50:44.123Z,3.00
2022-12-06T22:53:10.901Z,3.00
2022-12-06T22:55:39.255Z,3.30
2022-12-06T22:58:05.917Z,3.20
2022-12-06T23:00:32.551Z,3.20
2022-12-06T23:02:59.327Z,3.00
2022-12-06T23:05:26.009Z,3.10
2022-12-06T23:07:52.724Z,2.80
2022-12-06T23:10:19.449Z,2.80
2022-12-06T23:12:46.083Z,3.00
2022-12-06T23:15:12.708Z,3.10
2022-12-06T23:17:39.362Z,3.00
2022-12-06T23:20:06.737Z,2.80
2022-12-06T23:22:33.363Z,2.80
2022-12-06T23:25:00.015Z,3.10
2022-12-06T23:27:26.633Z,3.00
2022-12-06T23:29:53.241Z,3.00
2022-12-06T23:32:19.855Z,3.10
2022-12-06T23:34:46.477Z,3.10
2022-12-06T23:37:13.081Z,3.00
2022-12-06T23:39:39.748Z,3.10
2022-12-06T23:42:06.370Z,3.20
2022-12-06T23:44:32.971Z,3.00
2022-12-06T23:46:59.596Z,3.00
2022-12-06T23:49:26.204Z,2.80
2022-12-06T23:51:52.860Z,2.90
2022-12-06T23:54:19.563Z,3.10
2022-12-06T23:56:46.536Z,3.00
2022-12-06T23:59:14.663Z,3.10
